createdAt,value
2023-04-10T00:03:32.367Z,33.9
2023-04-10T00:08:48.765Z,33.9
2023-04-10T00:13:45.101Z,30.1
2023-04-10T00:19:01.565Z,30.1
2023-04-10T00:24:07.935Z,30.1
2023-04-10T00:29:14.290Z,31.9
2023-04-10T00:34:20.668Z,34.2
2023-04-10T00:39:51.115Z,19.7
2023-04-10T00:44:33.423Z,33.7
2023-04-10T00:49:29.812Z,19.9
2023-04-10T00:56:06.392Z,19.9
2023-04-10T01:00:16.647Z,19.9
2023-04-10T01:04:48.943Z,22.9
2023-04-10T01:10:05.346Z,22.9
2023-04-10T01:15:11.755Z,18.3
2023-04-10T01:20:18.075Z,25.0
2023-04-10T01:25:24.508Z,25.0
2023-04-10T01:30:30.916Z,17.5
2023-04-10T01:35:27.213Z,26.3
2023-04-10T01:40:43.598Z,26.3
2023-04-10T01:45:50.046Z,24.5
2023-04-10T01:51:59.504Z,32.8
2023-04-10T01:57:06.887Z,32.8
2023-04-10T02:01:49.293Z,21.0
2023-04-10T02:06:45.565Z,27.1
2023-04-10T02:12:36.066Z,33.2
2023-04-10T02:17:47.557Z,33.2
2023-04-10T02:22:49.848Z,33.2
2023-04-10T02:28:00.220Z,33.2
2023-04-10T02:33:23.763Z,33.2
2023-04-10T02:38:38.119Z,19.3
2023-04-10T02:43:16.528Z,19.3
2023-04-10T02:48:13.009Z,19.3
2023-04-10T02:53:33.430Z,19.3
2023-04-10T02:58:25.770Z,25.4
2023-04-10T03:03:41.287Z,27.1
2023-04-10T03:08:48.586Z,17.0
2023-04-10T03:13:44.930Z,27.4
2023-04-10T03:19:01.455Z,32.9
2023-04-10T03:24:07.844Z,31.0
2023-04-10T03:29:14.765Z,26.5
2023-04-10T03:34:21.190Z,29.5
2023-04-10T03:39:27.596Z,21.7
2023-04-10T03:44:34.088Z,28.8
2023-04-10T03:49:40.608Z,28.2
2023-04-10T03:54:46.973Z,33.8
2023-04-10T03:59:53.343Z,30.1
2023-04-10T04:04:59.858Z,31.0
2023-04-10T04:10:26.169Z,27.0
2023-04-10T04:15:12.506Z,20.3
2023-04-10T04:20:09.059Z,28.5
2023-04-10T04:25:15.449Z,33.0
2023-04-10T04:30:59.496Z,21.4
2023-04-10T04:35:41.801Z,22.5
2023-04-10T04:40:38.146Z,28.5
2023-04-10T04:45:54.601Z,28.9
2023-04-10T04:51:01.104Z,28.0
2023-04-10T04:56:07.474Z,28.8
2023-04-10T05:01:13.901Z,25.7
2023-04-10T05:06:20.261Z,26.5
2023-04-10T05:11:30.208Z,32.1
2023-04-10T05:17:15.662Z,29.5
2023-04-10T05:21:45.536Z,26.6
2023-04-10T05:26:53.027Z,35.2
2023-04-10T05:31:59.332Z,25.9
2023-04-10T05:37:05.748Z,34.9
2023-04-10T05:42:12.098Z,32.2
2023-04-10T05:47:19.638Z,31.8
2023-04-10T05:52:26.010Z,27.8
2023-04-10T06:02:38.864Z,33.7
2023-04-10T06:07:45.266Z,35.4
2023-04-10T06:12:51.627Z,32.7
2023-04-10T06:17:58.077Z,34.1
2023-04-10T06:23:04.418Z,34.0
2023-04-10T06:28:10.909Z,30.2
2023-04-10T06:33:17.304Z,23.7
2023-04-10T06:38:23.682Z,22.2
2023-04-10T06:43:30.037Z,22.2
2023-04-10T06:48:26.395Z,22.2
2023-04-10T06:54:06.917Z,26.2
2023-04-10T06:58:49.793Z,28.1
2023-04-10T07:03:56.304Z,26.8
2023-04-10T07:09:02.816Z,26.8
2023-04-10T07:13:59.209Z,26.8
2023-04-10T07:19:17.161Z,18.4
2023-04-10T07:24:13.509Z,10.8
2023-04-10T07:29:19.922Z,17.0
2023-04-10T07:34:36.297Z,17.3
2023-04-10T07:39:42.674Z,14.6
2023-04-10T07:44:49.142Z,13.8
2023-04-10T07:49:55.612Z,14.8
2023-04-10T07:55:02.224Z,11.9
2023-04-10T08:00:32.684Z,11.3
2023-04-10T08:05:05.055Z,13.5
2023-04-10T08:10:45.418Z,10.3
2023-04-10T08:15:27.761Z,9.3
2023-04-10T08:20:34.728Z,8.8
2023-04-10T08:25:41.084Z,7.5
2023-04-10T08:30:47.519Z,9.0
2023-04-10T08:35:53.905Z,8.2
2023-04-10T08:41:00.238Z,6.5
2023-04-10T08:46:07.834Z,6.6
2023-04-10T08:51:19.444Z,6.7
2023-04-10T08:56:40.772Z,4.3
2023-04-10T09:01:27.739Z,7.9
2023-04-10T09:06:34.117Z,6.2
2023-04-10T09:12:00.917Z,6.9
2023-04-10T09:16:46.851Z,5.9
2023-04-10T09:21:53.359Z,5.3
2023-04-10T09:26:59.799Z,6.4
2023-04-10T09:32:06.186Z,5.7
2023-04-10T09:37:32.641Z,5.6
2023-04-10T09:42:18.947Z,5.6
2023-04-10T09:47:49.400Z,5.2
2023-04-10T09:52:31.797Z,5.6
2023-04-10T09:57:38.352Z,3.5
2023-04-10T10:02:44.841Z,3.7
2023-04-10T10:07:52.634Z,2.6
2023-04-10T10:13:19.130Z,3.5
2023-04-10T10:18:05.482Z,2.0
2023-04-10T10:23:11.803Z,2.9
2023-04-10T10:28:18.178Z,1.9
2023-04-10T10:33:24.679Z,1.9
2023-04-10T10:38:32.296Z,2.6
2023-04-10T10:43:38.679Z,2.6
2023-04-10T10:48:45.081Z,3.0
2023-04-10T10:53:51.437Z,1.0
2023-04-10T10:58:58.089Z,2.7
2023-04-10T11:04:04.819Z,2.0
2023-04-10T11:09:10.887Z,2.8
2023-04-10T11:14:17.278Z,1.9
2023-04-10T11:19:27.599Z,1.8
2023-04-10T11:24:33.742Z,1.8
2023-04-10T11:29:40.132Z,2.3
2023-04-10T11:35:10.583Z,2.3
2023-04-10T11:39:42.867Z,1.3
2023-04-10T11:44:59.276Z,1.6
2023-04-10T11:50:05.693Z,1.6
2023-04-10T11:55:26.187Z,1.9
2023-04-10T12:00:18.556Z,2.2
2023-04-10T12:05:24.889Z,1.9
2023-04-10T12:10:31.347Z,1.9
2023-04-10T12:15:57.763Z,2.8
2023-04-10T12:20:44.075Z,1.8
2023-04-10T12:25:50.481Z,1.8
2023-04-10T12:31:00.877Z,3.2
2023-04-10T12:36:03.320Z,1.2
2023-04-10T12:41:29.675Z,1.8
2023-04-10T12:46:16.069Z,1.7
2023-04-10T12:51:22.375Z,2.3
2023-04-10T12:56:28.771Z,1.1
2023-04-10T13:01:35.206Z,1.2
2023-04-10T13:06:41.568Z,2.0
2023-04-10T13:11:50.269Z,1.8
2023-04-10T13:16:54.400Z,1.6
2023-04-10T13:22:00.746Z,1.5
2023-04-10T13:27:27.168Z,2.1
2023-04-10T13:32:13.557Z,2.1
2023-04-10T13:37:21.097Z,1.3
2023-04-10T13:42:26.473Z,1.7
2023-04-10T13:47:23.879Z,1.6
2023-04-10T13:52:40.246Z,1.8
2023-04-10T13:57:36.610Z,1.7
2023-04-10T14:02:53.498Z,2.0
2023-04-10T14:07:59.515Z,1.5
2023-04-10T14:13:05.915Z,2.6
2023-04-10T14:18:12.320Z,1.7
2023-04-10T14:23:18.721Z,1.4
2023-04-10T14:28:25.031Z,1.1
2023-04-10T14:33:31.650Z,1.8
2023-04-10T14:38:37.925Z,3.9
2023-04-10T14:43:44.785Z,1.5
2023-04-10T14:48:40.894Z,2.0
2023-04-10T14:53:57.191Z,3.9
2023-04-10T14:59:03.476Z,1.5
2023-04-10T15:04:34.194Z,2.1
2023-04-10T15:09:16.326Z,1.7
2023-04-10T15:14:22.724Z,5.0
2023-04-10T15:19:53.161Z,5.1
2023-04-10T15:24:46.988Z,2.4
2023-04-10T15:30:15.931Z,2.0
2023-04-10T15:34:48.246Z,2.3
2023-04-10T15:39:44.624Z,2.0
2023-04-10T15:46:03.157Z,2.2
2023-04-10T15:50:27.468Z,2.3
2023-04-10T15:55:37.953Z,2.0
2023-04-10T16:00:20.281Z,0.9
2023-04-10T16:05:50.696Z,1.4
2023-04-10T16:10:33.045Z,1.9
2023-04-10T16:15:39.593Z,1.9
2023-04-10T16:20:45.918Z,1.6
2023-04-10T16:25:52.302Z,1.7
2023-04-10T16:31:32.805Z,1.4
2023-04-10T16:36:40.165Z,2.2
2023-04-10T16:41:46.653Z,2.0
2023-04-10T16:48:27.271Z,2.0
2023-04-10T16:52:19.535Z,1.5
2023-04-10T16:56:55.849Z,1.4
2023-04-10T17:02:12.285Z,3.0
2023-04-10T17:07:18.754Z,2.0
2023-04-10T17:12:45.088Z,1.7
2023-04-10T17:17:55.506Z,1.4
2023-04-10T17:22:37.843Z,1.9
2023-04-10T17:27:44.212Z,2.0
2023-04-10T17:32:50.615Z,1.7
2023-04-10T17:37:56.989Z,2.5
2023-04-10T17:43:03.336Z,1.4
2023-04-10T17:48:33.781Z,2.1
2023-04-10T17:53:06.180Z,2.7
2023-04-10T17:58:22.450Z,2.3
2023-04-10T18:04:09.978Z,1.9
2023-04-10T18:08:58.404Z,2.5
2023-04-10T18:13:31.723Z,2.7
2023-04-10T18:18:48.157Z,3.0
2023-04-10T18:23:44.581Z,2.2
2023-04-10T18:29:25.054Z,2.4
2023-04-10T18:34:27.439Z,3.2
2023-04-10T18:39:13.771Z,2.2
2023-04-10T18:44:20.159Z,1.8
2023-04-10T18:49:27.131Z,2.6
2023-04-10T18:54:33.532Z,2.0
2023-04-10T18:59:39.909Z,1.8
2023-04-10T19:04:46.493Z,2.7
2023-04-10T19:09:52.688Z,1.0
2023-04-10T19:14:59.256Z,2.2
2023-04-10T19:20:05.755Z,3.4
2023-04-10T19:25:12.141Z,2.8
2023-04-10T19:30:42.585Z,3.1
2023-04-10T19:35:24.946Z,2.8
2023-04-10T19:40:31.291Z,2.2
2023-04-10T19:45:37.669Z,2.0
2023-04-10T19:50:44.115Z,2.5
2023-04-10T19:55:50.423Z,2.2
2023-04-10T20:00:56.808Z,1.8
2023-04-10T20:06:03.319Z,2.2
2023-04-10T20:11:09.916Z,2.2
2023-04-10T20:16:16.345Z,2.6
2023-04-10T20:21:22.783Z,1.4
2023-04-10T20:26:29.099Z,1.6
2023-04-10T20:31:37.659Z,1.5
2023-04-10T20:36:45.127Z,2.2
2023-04-10T20:41:56.153Z,2.3
2023-04-10T20:47:02.642Z,1.8
2023-04-10T20:52:08.999Z,1.3
2023-04-10T20:57:15.370Z,1.8
2023-04-10T21:02:21.863Z,1.0
2023-04-10T21:07:28.151Z,1.0
2023-04-10T21:12:34.528Z,0.9
2023-04-10T21:22:51.910Z,1.1
2023-04-10T21:28:16.489Z,0.8
2023-04-10T21:33:06.470Z,1.1
2023-04-10T21:38:12.844Z,1.0
2023-04-10T21:43:19.266Z,0.9
2023-04-10T21:49:24.000Z,1.3
2023-04-10T21:54:07.366Z,1.0
2023-04-10T22:00:15.888Z,1.1
2023-04-10T22:04:20.305Z,1.0
2023-04-10T22:10:18.737Z,1.5
2023-04-10T22:14:53.021Z,0.7
2023-04-10T22:19:39.356Z,0.6
2023-04-10T22:24:45.750Z,0.8
2023-04-10T22:30:06.203Z,0.9
2023-04-10T22:34:58.505Z,0.5
2023-04-10T22:40:05.020Z,0.7
2023-04-10T22:45:03.526Z,1.1
2023-04-10T22:51:23.108Z,1.1
2023-04-10T22:55:25.390Z,0.9
2023-04-10T23:00:22.670Z,1.0
2023-04-10T23:05:59.108Z,1.6
2023-04-10T23:10:45.476Z,0.7
2023-04-10T23:15:51.993Z,0.9
2023-04-10T23:20:58.359Z,0.8
2023-04-10T23:26:28.826Z,0.9
2023-04-10T23:31:11.171Z,1.2
2023-04-10T23:36:07.512Z,1.1
2023-04-10T23:41:24.084Z,0.8
2023-04-10T23:46:30.560Z,1.8
2023-04-10T23:51:36.859Z,4.8
2023-04-10T23:56:43.233Z,0.8
